KFRM

Fairmont Municipal Airport

Fairmont, Minnesota, USA
METAR KFRM 260256Z AUTO 21008KT 10SM CLR M08/M09 A3000 RMK AO2 SLP183 T10781094 51015 FZRANO
Observed Flight Rules
Feb-26 @ 02:56 UTC (23 minutes ago) Visual Flight Rules
Wind Visibility Clouds
210° at 8 knots 10 miles
  • Clear skies
Temperatures Readings
Current -8°C / 18°F
Dewpoint -9°C / 16°F
Humidity 93%
Altimeter 30" Hg
Pressure 1018.3 hPa
Elevation 354
METAR KFRM 260256Z AUTO 21008KT 10SM CLR M08/M09 A3000 RMK AO2 SLP183 T10781094 51015 FZRANO
Observed Flight Rules
Feb-26 @ 02:56 UTC
(23 minutes ago)
VFR
Wind Visibility
210° at 8 knots 10 miles
Clouds
  • Clear skies
Temperature Dewpoint
-8°C / 18°F -9°C / 16°F
Humidity Altimeter Pressure
93% 30" Hg 1018.3 hPa